Time;durP1;ratioP1;P1;durP2;ratioP2;P2;SDS_P1;SDS_P2;PMS_P1;PMS_P2;Temp;Humidity;BMP_temperature;BMP_pressure;BME280_temperature;BME280_humidity;BME280_pressure;Samples;Min_cycle;Max_cycle;Signal;HPM_P1;HPM_P2
2023/06/26 05:01:39;;;;;;;12.88;8.02;;;20.30;85.00;;;;;;6014932;23;20018;31
2023/06/26 05:04:05;;;;;;;12.10;7.18;;;20.20;85.30;;;;;;4957675;28;20222;-76
2023/06/26 05:06:31;;;;;;;13.32;7.63;;;20.20;85.30;;;;;;4964444;29;20051;-75
2023/06/26 05:08:57;;;;;;;15.38;7.97;;;20.30;85.40;;;;;;4964585;29;20038;-74
2023/06/26 05:11:24;;;;;;;19.35;13.45;;;20.20;85.40;;;;;;4963783;29;20325;-74
2023/06/26 05:13:53;;;;;;;14.70;10.82;;;20.40;85.30;;;;;;4964370;29;20074;-75
2023/06/26 05:16:18;;;;;;;12.80;9.25;;;20.40;85.20;;;;;;4963912;29;20023;-72
2023/06/26 05:18:44;;;;;;;13.65;8.82;;;20.50;84.90;;;;;;4947153;29;20042;-75
2023/06/26 05:21:10;;;;;;;15.00;8.65;;;20.40;84.70;;;;;;4963772;29;20027;-75
2023/06/26 05:23:36;;;;;;;14.43;9.35;;;20.50;84.40;;;;;;4947612;29;20094;-75
2023/06/26 05:26:02;;;;;;;14.65;8.95;;;20.60;84.70;;;;;;4964331;29;20312;-74
2023/06/26 05:28:30;;;;;;;12.65;8.32;;;20.70;84.40;;;;;;4963791;29;20309;-72
2023/06/26 05:30:57;;;;;;;12.38;7.95;;;20.70;84.00;;;;;;4964633;28;20042;-74
2023/06/26 05:33:24;;;;;;;14.27;9.65;;;20.80;83.80;;;;;;4967646;29;20253;-75
2023/06/26 05:35:52;;;;;;;13.38;9.25;;;20.90;83.70;;;;;;4967736;29;20031;-73
2023/06/26 05:38:19;;;;;;;11.57;7.72;;;21.00;83.40;;;;;;4967138;29;20039;-73
2023/06/26 05:40:45;;;;;;;15.02;8.27;;;21.00;83.20;;;;;;4967921;29;20035;-73
2023/06/26 05:43:11;;;;;;;11.75;7.65;;;21.00;83.10;;;;;;4967031;29;20086;-73
2023/06/26 05:45:37;;;;;;;14.45;8.60;;;21.10;82.90;;;;;;4967997;29;20085;-73
2023/06/26 05:48:02;;;;;;;18.63;12.55;;;21.20;82.90;;;;;;4967640;29;20059;-75
2023/06/26 05:50:29;;;;;;;13.70;8.93;;;21.30;82.60;;;;;;4950010;29;20039;-74
2023/06/26 05:52:55;;;;;;;13.05;9.10;;;21.40;82.50;;;;;;4967934;29;20023;-75
2023/06/26 05:55:21;;;;;;;10.90;7.68;;;21.50;82.30;;;;;;4967287;29;20031;-72
2023/06/26 05:57:47;;;;;;;14.20;8.02;;;21.60;82.10;;;;;;4950440;29;20324;-73
2023/06/26 06:00:14;;;;;;;15.02;10.65;;;21.70;81.50;;;;;;4966729;29;20062;-73
2023/06/26 06:02:42;;;;;;;11.75;8.10;;;21.90;81.10;;;;;;4989957;28;20050;-73
2023/06/26 06:05:08;;;;;;;18.95;12.20;;;21.90;80.50;;;;;;4986651;28;20037;-74
2023/06/26 06:07:34;;;;;;;13.93;8.18;;;22.00;80.60;;;;;;4986423;28;20042;-74
2023/06/26 06:10:01;;;;;;;11.60;7.85;;;22.10;80.50;;;;;;4986559;28;20042;-74
2023/06/26 06:12:27;;;;;;;12.70;7.60;;;22.20;80.30;;;;;;4985907;28;20316;-74
2023/06/26 06:14:53;;;;;;;12.18;7.60;;;22.30;79.90;;;;;;4986359;28;20232;-74
2023/06/26 06:17:20;;;;;;;11.80;7.57;;;22.40;79.50;;;;;;4985965;28;20320;-73
2023/06/26 06:19:46;;;;;;;14.05;7.45;;;22.60;79.20;;;;;;5001494;28;20035;-75
2023/06/26 06:22:12;;;;;;;12.93;6.90;;;22.70;78.90;;;;;;4985995;28;20023;-75
2023/06/26 06:24:37;;;;;;;13.18;7.50;;;22.80;78.80;;;;;;4986433;28;20122;-74
2023/06/26 06:27:03;;;;;;;9.48;7.38;;;22.90;78.20;;;;;;4986308;28;20021;-74
2023/06/26 06:29:29;;;;;;;12.10;7.75;;;23.00;78.00;;;;;;4985913;28;20061;-74
2023/06/26 06:31:55;;;;;;;17.00;8.55;;;23.20;77.80;;;;;;4985975;28;20031;-75
2023/06/26 06:34:20;;;;;;;11.95;8.00;;;23.20;77.60;;;;;;4985331;28;20022;-75
2023/06/26 06:36:46;;;;;;;13.52;6.85;;;23.30;77.40;;;;;;4986076;28;20023;-74
2023/06/26 06:39:12;;;;;;;13.32;7.28;;;23.40;77.30;;;;;;4985177;28;20308;-73
2023/06/26 06:41:38;;;;;;;14.02;7.13;;;23.60;76.80;;;;;;4985545;28;20026;-74
2023/06/26 06:44:05;;;;;;;11.23;6.68;;;23.70;76.50;;;;;;4967130;28;20044;-75
2023/06/26 06:46:31;;;;;;;12.13;7.20;;;23.80;76.30;;;;;;4985356;28;20039;-73
2023/06/26 06:48:57;;;;;;;12.95;7.20;;;24.00;76.20;;;;;;4986064;28;20042;-71
2023/06/26 06:51:23;;;;;;;13.25;6.82;;;24.10;76.00;;;;;;4985498;28;20031;-73
2023/06/26 06:53:48;;;;;;;10.95;7.28;;;24.20;75.30;;;;;;4985694;28;20265;-72
2023/06/26 06:56:14;;;;;;;9.50;6.25;;;24.40;75.00;;;;;;4985207;28;20037;-72
2023/06/26 06:58:42;;;;;;;11.40;6.53;;;24.60;74.50;;;;;;5002536;28;20093;-75
2023/06/26 07:01:11;;;;;;;12.13;6.28;;;24.70;74.30;;;;;;5004897;28;20098;-76
2023/06/26 07:03:37;;;;;;;12.20;6.15;;;24.80;74.10;;;;;;5000254;28;20035;-74
2023/06/26 07:06:03;;;;;;;11.48;6.40;;;25.00;73.80;;;;;;4985720;28;20076;-75
2023/06/26 07:08:29;;;;;;;10.65;6.25;;;25.10;73.60;;;;;;4984714;28;20057;-75
2023/06/26 07:10:56;;;;;;;9.48;6.65;;;25.30;72.70;;;;;;4985616;28;20033;-75
2023/06/26 07:13:22;;;;;;;9.57;5.88;;;25.40;72.20;;;;;;4984973;28;20034;-76
2023/06/26 07:15:48;;;;;;;11.45;6.30;;;25.50;72.20;;;;;;4985215;28;20039;-74
2023/06/26 07:18:14;;;;;;;10.70;6.18;;;25.60;72.10;;;;;;4984385;28;20073;-76
2023/06/26 07:20:41;;;;;;;10.13;6.38;;;25.80;71.90;;;;;;4979745;28;20031;-75
2023/06/26 07:23:07;;;;;;;11.20;6.47;;;25.90;71.50;;;;;;4984293;28;20023;-76
2023/06/26 07:25:33;;;;;;;9.48;6.45;;;26.00;70.70;;;;;;4984115;28;20062;-75
2023/06/26 07:27:59;;;;;;;10.30;6.55;;;26.10;70.60;;;;;;4984985;28;20095;-76
2023/06/26 07:30:24;;;;;;;9.43;5.70;;;26.10;70.40;;;;;;4984451;28;20217;-75
2023/06/26 07:32:50;;;;;;;10.45;6.43;;;26.20;70.60;;;;;;4984969;28;20035;-75
2023/06/26 07:35:16;;;;;;;10.77;6.85;;;26.30;70.20;;;;;;4984461;28;20041;-75
2023/06/26 07:37:42;;;;;;;11.93;5.95;;;26.50;70.10;;;;;;4984756;28;20081;-76
2023/06/26 07:40:09;;;;;;;18.15;6.78;;;26.50;69.40;;;;;;4984856;28;20212;-75
2023/06/26 07:42:35;;;;;;;9.23;6.10;;;26.60;69.10;;;;;;4984331;28;20297;-75
2023/06/26 07:45:00;;;;;;;10.15;5.63;;;26.60;68.00;;;;;;4984513;28;20027;-75
2023/06/26 07:47:26;;;;;;;9.00;5.80;;;26.70;68.80;;;;;;4984407;28;20026;-78
2023/06/26 07:49:52;;;;;;;10.38;6.97;;;26.90;69.00;;;;;;4984752;28;20038;-76
2023/06/26 07:52:19;;;;;;;9.32;6.70;;;27.00;68.50;;;;;;4999262;28;20181;-76
2023/06/26 07:54:45;;;;;;;9.52;6.30;;;27.10;68.00;;;;;;4984241;28;20027;-76
2023/06/26 07:57:12;;;;;;;10.48;5.97;;;27.30;67.50;;;;;;4984897;28;20030;-75
2023/06/26 07:59:41;;;;;;;8.98;6.22;;;27.40;66.90;;;;;;4999806;28;20054;-76
2023/06/26 08:02:07;;;;;;;10.32;7.10;;;27.50;66.90;;;;;;4999521;28;20062;-75
2023/06/26 08:04:33;;;;;;;9.52;6.28;;;27.60;66.60;;;;;;4984039;28;20549;-76
2023/06/26 08:07:00;;;;;;;9.10;5.35;;;27.70;65.90;;;;;;4984117;28;20030;-75
2023/06/26 08:09:28;;;;;;;10.88;5.80;;;27.90;65.40;;;;;;4983607;28;20096;-76
2023/06/26 08:11:54;;;;;;;10.18;6.15;;;27.90;64.90;;;;;;4983952;28;20134;-76
2023/06/26 08:14:20;;;;;;;13.40;6.18;;;28.00;65.00;;;;;;4983887;28;20101;-76
2023/06/26 08:16:50;;;;;;;12.05;6.03;;;28.10;64.30;;;;;;4984380;28;20082;-79
2023/06/26 08:19:16;;;;;;;8.80;5.70;;;28.20;64.30;;;;;;4983263;28;20076;-74
2023/06/26 08:21:46;;;;;;;9.95;5.15;;;28.30;64.10;;;;;;4984097;28;20023;-75
2023/06/26 08:24:18;;;;;;;7.57;5.57;;;28.50;64.00;;;;;;4967005;28;20217;-75
2023/06/26 08:26:48;;;;;;;10.80;5.70;;;28.60;63.80;;;;;;4983993;28;20285;-76
2023/06/26 08:29:15;;;;;;;9.27;5.47;;;28.90;63.20;;;;;;4983992;28;20026;-75
2023/06/26 08:31:41;;;;;;;9.30;6.55;;;29.00;62.90;;;;;;4983998;28;20028;-73
2023/06/26 08:34:07;;;;;;;9.80;5.50;;;29.20;62.00;;;;;;4983795;28;20027;-74
2023/06/26 08:36:33;;;;;;;6.85;5.15;;;29.30;61.90;;;;;;4983446;28;20090;-74
2023/06/26 08:38:59;;;;;;;9.55;5.40;;;29.40;61.20;;;;;;4983921;28;20085;-73
2023/06/26 08:41:25;;;;;;;7.80;4.70;;;29.50;60.80;;;;;;4983183;28;20031;-71
2023/06/26 08:43:52;;;;;;;6.63;4.97;;;29.60;61.10;;;;;;4983545;28;20297;-74
2023/06/26 08:46:19;;;;;;;10.13;5.50;;;29.70;60.80;;;;;;4983347;28;20098;-74
2023/06/26 08:49:09;;;;;;;11.65;4.82;;;29.70;60.90;;;;;;4983977;28;20034;-76
2023/06/26 08:51:37;;;;;;;9.73;4.70;;;29.70;60.60;;;;;;4983375;28;20039;-75
2023/06/26 08:54:08;;;;;;;7.65;4.75;;;29.90;60.50;;;;;;4983730;28;20041;-75
2023/06/26 08:56:46;;;;;;;5.47;4.13;;;30.00;59.80;;;;;;4966419;28;20416;-75
2023/06/26 08:59:14;;;;;;;;;;;30.10;59.60;;;;;;4967048;28;20043;-75
2023/06/26 09:01:41;;;;;;;5.77;4.00;;;30.20;59.20;;;;;;4986301;28;19981;-75
2023/06/26 09:04:06;;;;;;;8.88;4.72;;;30.00;59.10;;;;;;5003504;28;20682;-74
2023/06/26 09:06:33;;;;;;;6.70;4.07;;;30.00;59.50;;;;;;5003718;28;20057;-75
2023/06/26 09:08:59;;;;;;;7.68;4.60;;;30.20;59.20;;;;;;5000644;28;20090;-75
2023/06/26 09:11:27;;;;;;;6.07;4.45;;;30.30;59.20;;;;;;4986133;28;20019;-75
2023/06/26 09:13:55;;;;;;;6.63;4.10;;;30.50;59.30;;;;;;4987648;28;20309;-74
2023/06/26 09:16:26;;;;;;;5.60;4.37;;;30.50;58.30;;;;;;4986393;28;20038;-75
2023/06/26 09:18:53;;;;;;;6.65;4.35;;;30.60;58.90;;;;;;4983490;28;20463;-75
2023/06/26 09:21:18;;;;;;;6.25;4.40;;;30.70;58.50;;;;;;4966440;29;20104;-75
2023/06/26 09:23:46;;;;;;;5.40;3.85;;;30.80;58.90;;;;;;4983285;28;20039;-76
2023/06/26 09:26:17;;;;;;;7.00;4.10;;;31.00;58.90;;;;;;4968114;29;20023;-74
2023/06/26 09:28:43;;;;;;;5.90;3.95;;;31.10;57.50;;;;;;4982836;28;20031;-74
2023/06/26 09:31:12;;;;;;;8.15;4.15;;;31.20;57.80;;;;;;4968006;29;20047;-75
2023/06/26 09:33:38;;;;;;;7.45;3.95;;;31.20;57.20;;;;;;4967275;28;20348;-75
2023/06/26 09:36:09;;;;;;;5.95;4.00;;;31.30;57.30;;;;;;4967515;29;20035;-74
2023/06/26 09:38:36;;;;;;;6.10;4.00;;;31.50;57.40;;;;;;4966165;29;20054;-75
2023/06/26 09:41:05;;;;;;;5.50;3.83;;;31.50;57.20;;;;;;4950494;29;20023;-76
2023/06/26 09:43:31;;;;;;;4.97;3.67;;;31.60;56.80;;;;;;4967265;29;20081;-75
2023/06/26 09:46:00;;;;;;;5.03;4.07;;;31.80;56.60;;;;;;4982275;28;20050;-79
2023/06/26 09:48:30;;;;;;;6.85;3.63;;;32.00;56.70;;;;;;4967019;29;20078;-75
2023/06/26 09:51:00;;;;;;;5.47;3.70;;;32.30;56.30;;;;;;4967625;28;20035;-75
2023/06/26 09:53:26;;;;;;;5.65;3.78;;;32.60;56.20;;;;;;4966847;28;20321;-74
2023/06/26 09:55:52;;;;;;;6.10;4.00;;;32.80;55.90;;;;;;4966103;29;20380;-75
2023/06/26 09:58:22;;;;;;;5.72;4.20;;;33.00;55.50;;;;;;4980968;28;20038;-75
2023/06/26 10:00:47;;;;;;;5.20;3.67;;;33.10;55.10;;;;;;4986871;28;20035;-75
2023/06/26 10:03:14;;;;;;;5.28;4.00;;;32.80;55.20;;;;;;4986534;28;20058;-74
2023/06/26 10:05:50;;;;;;;5.95;4.13;;;32.70;55.00;;;;;;4985750;28;20094;-74
2023/06/26 10:08:17;;;;;;;8.50;4.40;;;32.50;55.50;;;;;;4986079;28;20081;-74
2023/06/26 10:10:44;;;;;;;5.78;3.97;;;32.60;55.90;;;;;;4986508;28;20049;-73
2023/06/26 10:13:21;;;;;;;7.20;4.00;;;32.70;55.80;;;;;;4986408;28;20023;-72
2023/06/26 10:15:49;;;;;;;5.88;4.32;;;32.60;55.40;;;;;;4986325;28;20030;-73
2023/06/26 10:18:17;;;;;;;6.90;4.60;;;32.40;56.10;;;;;;4986007;28;20026;-75
2023/06/26 10:20:46;;;;;;;8.07;4.40;;;32.40;56.60;;;;;;4979917;28;20098;-74
2023/06/26 10:23:14;;;;;;;6.60;4.40;;;32.50;56.90;;;;;;4966690;29;20035;-73
2023/06/26 10:25:44;;;;;;;8.32;4.40;;;32.70;56.90;;;;;;4981921;28;20023;-76
2023/06/26 10:28:12;;;;;;;7.00;4.57;;;32.80;56.90;;;;;;4981951;28;20148;-73
2023/06/26 10:30:39;;;;;;;6.85;4.80;;;32.80;56.90;;;;;;4965982;29;20020;-73
2023/06/26 10:33:07;;;;;;;13.85;5.60;;;32.70;57.20;;;;;;4966282;29;20031;-74
2023/06/26 10:35:33;;;;;;;6.85;4.55;;;32.20;57.60;;;;;;4965922;28;20046;-73
2023/06/26 10:38:06;;;;;;;5.70;4.63;;;32.10;58.30;;;;;;4965256;29;20039;-73
2023/06/26 10:40:51;;;;;;;7.38;5.20;;;31.80;58.80;;;;;;4979038;28;20039;-73
2023/06/26 10:43:21;;;;;;;8.00;5.30;;;31.60;59.60;;;;;;4966037;28;20336;-73
2023/06/26 10:45:55;;;;;;;6.70;4.85;;;31.50;60.10;;;;;;4966593;28;20031;-72
2023/06/26 10:48:22;;;;;;;7.65;4.80;;;31.60;59.60;;;;;;4965727;28;20148;-71
2023/06/26 10:50:49;;;;;;;6.45;4.78;;;31.40;59.60;;;;;;4965408;29;20098;-72
2023/06/26 10:53:20;;;;;;;10.93;5.20;;;31.20;59.70;;;;;;4966302;28;20312;-73
2023/06/26 10:55:56;;;;;;;7.40;5.03;;;31.20;57.80;;;;;;4966351;29;20081;-72
2023/06/26 10:58:41;;;;;;;7.47;4.57;;;31.10;58.10;;;;;;4979718;28;20351;-75
2023/06/26 11:01:21;;;;;;;5.28;4.78;;;31.10;57.50;;;;;;4985082;28;20093;-73
2023/06/26 11:04:05;;;;;;;9.30;5.10;;;31.20;58.70;;;;;;4985614;28;20066;-72
2023/06/26 11:06:32;;;;;;;7.15;4.88;;;31.50;58.10;;;;;;4984813;28;20040;-73
2023/06/26 11:09:17;;;;;;;8.07;4.95;;;31.50;58.30;;;;;;4972109;28;20031;-73
2023/06/26 11:11:54;;;;;;;7.97;5.15;;;31.80;57.70;;;;;;4965673;29;20035;-73
2023/06/26 11:14:23;;;;;;;6.72;5.05;;;32.00;57.50;;;;;;4946116;29;20343;-73
2023/06/26 11:16:55;;;;;;;6.57;4.85;;;32.00;57.00;;;;;;4968026;28;20023;-72
2023/06/26 11:19:21;;;;;;;7.03;4.78;;;32.10;57.30;;;;;;4965270;29;20035;-71
2023/06/26 11:21:47;;;;;;;6.13;5.00;;;32.00;57.50;;;;;;4965591;28;20078;-73
2023/06/26 11:24:13;;;;;;;8.13;5.00;;;32.30;57.60;;;;;;4965397;29;20046;-73
2023/06/26 11:26:43;;;;;;;8.68;5.32;;;32.30;58.00;;;;;;4965278;28;20069;-74
2023/06/26 11:29:10;;;;;;;7.57;5.10;;;31.90;57.80;;;;;;4965229;28;20161;-73
2023/06/26 11:31:39;;;;;;;6.68;4.63;;;31.90;58.30;;;;;;4964986;29;20031;-73
2023/06/26 11:34:08;;;;;;;8.55;5.03;;;31.90;58.20;;;;;;4965827;29;20031;-73
2023/06/26 11:36:36;;;;;;;7.13;5.53;;;32.30;58.30;;;;;;4965480;28;20099;-75
2023/06/26 11:39:07;;;;;;;5.85;4.45;;;32.50;57.70;;;;;;4965251;28;20050;-73
2023/06/26 11:41:34;;;;;;;10.20;5.03;;;32.80;57.00;;;;;;4965183;28;20053;-72
2023/06/26 11:44:01;;;;;;;9.15;5.03;;;32.70;57.20;;;;;;4964790;29;20039;-73
2023/06/26 11:46:28;;;;;;;7.70;4.65;;;32.90;56.90;;;;;;4964381;29;20065;-72
2023/06/26 11:48:54;;;;;;;10.40;5.13;;;33.10;57.00;;;;;;4965539;28;20305;-74
2023/06/26 11:51:20;;;;;;;8.00;4.20;;;33.90;56.70;;;;;;4964510;29;20348;-76
2023/06/26 11:53:47;;;;;;;9.05;4.70;;;34.80;55.70;;;;;;4965201;28;20038;-71
2023/06/26 11:56:14;;;;;;;7.38;4.63;;;35.90;54.20;;;;;;4965043;28;20035;-76
2023/06/26 11:59:03;;;;;;;6.95;4.47;;;36.30;53.30;;;;;;4981918;28;20321;-73
2023/06/26 12:01:38;;;;;;;7.03;4.57;;;36.70;53.00;;;;;;4983786;28;20038;-74
2023/06/26 12:04:06;;;;;;;9.25;4.93;;;36.80;53.30;;;;;;4984836;28;20089;-76
2023/06/26 12:06:40;;;;;;;6.60;4.05;;;37.20;53.50;;;;;;4984136;28;20066;-75
2023/06/26 12:09:10;;;;;;;7.32;4.60;;;37.00;53.80;;;;;;4978214;28;20053;-75
2023/06/26 12:11:38;;;;;;;5.93;4.78;;;36.00;55.10;;;;;;4964597;28;20043;-74
2023/06/26 12:14:05;;;;;;;;;;;34.60;56.90;;;;;;4965625;28;20031;-75
2023/06/26 12:16:34;;;;;;;5.28;4.30;;;34.50;57.70;;;;;;4979592;28;19913;-75
2023/06/26 12:19:01;;;;;;;8.32;4.68;;;34.00;57.80;;;;;;4964648;29;20043;-73
2023/06/26 12:21:41;;;;;;;6.70;4.78;;;33.30;58.80;;;;;;4964201;29;20030;-75
2023/06/26 12:24:14;;;;;;;7.55;4.78;;;33.80;58.40;;;;;;4964370;29;20151;-74
2023/06/26 12:26:45;;;;;;;17.73;5.50;;;34.60;57.40;;;;;;4964068;28;20066;-74
2023/06/26 12:29:20;;;;;;;7.20;4.50;;;35.20;56.50;;;;;;4964717;29;20095;-76
2023/06/26 12:31:54;;;;;;;5.57;4.18;;;36.10;56.00;;;;;;4964880;29;20039;-74
2023/06/26 12:34:25;;;;;;;6.95;4.18;;;37.00;54.50;;;;;;4979504;28;20031;-75
2023/06/26 12:36:51;;;;;;;6.25;4.30;;;38.30;54.20;;;;;;4964313;29;20094;-75
2023/06/26 12:39:21;;;;;;;7.47;4.50;;;38.60;52.60;;;;;;4963978;29;20070;-73
2023/06/26 12:41:49;;;;;;;6.38;4.28;;;38.70;52.50;;;;;;4964888;28;20031;-73
2023/06/26 12:44:22;;;;;;;6.32;4.10;;;38.90;52.50;;;;;;4964198;28;20106;-72
2023/06/26 12:46:49;;;;;;;6.32;4.07;;;39.10;51.90;;;;;;4964487;28;20348;-73
2023/06/26 12:49:15;;;;;;;5.72;3.80;;;39.20;52.20;;;;;;4964536;29;20030;-73
2023/06/26 12:51:42;;;;;;;6.55;4.25;;;39.30;51.60;;;;;;4964261;29;20035;-71
2023/06/26 12:54:08;;;;;;;5.90;4.28;;;39.20;51.70;;;;;;4964355;29;20031;-74
2023/06/26 12:56:34;;;;;;;6.75;4.32;;;39.90;50.80;;;;;;4964150;28;20043;-72
2023/06/26 12:59:01;;;;;;;6.03;4.43;;;39.70;51.00;;;;;;4945146;29;20270;-72
2023/06/26 13:01:27;;;;;;;4.30;3.90;;;40.50;50.10;;;;;;4945585;29;20071;-74
2023/06/26 13:03:54;;;;;;;7.82;5.63;;;40.10;49.90;;;;;;4947585;29;20039;-73
2023/06/26 13:06:20;;;;;;;6.30;3.90;;;39.80;50.00;;;;;;4964055;29;20211;-72
2023/06/26 13:08:46;;;;;;;5.03;4.18;;;39.90;50.30;;;;;;4967499;28;20059;-74
2023/06/26 13:11:11;;;;;;;5.32;4.15;;;39.80;50.10;;;;;;4983856;28;20030;-73
2023/06/26 13:13:37;;;;;;;5.75;4.10;;;39.30;50.30;;;;;;4983207;28;20042;-75
2023/06/26 13:16:03;;;;;;;7.57;4.50;;;39.50;50.30;;;;;;4983323;28;20038;-75
2023/06/26 13:18:28;;;;;;;5.70;4.70;;;38.30;51.20;;;;;;4983263;28;20026;-73
2023/06/26 13:20:54;;;;;;;8.35;4.95;;;37.90;51.90;;;;;;4983775;28;20027;-73
2023/06/26 13:23:20;;;;;;;7.70;4.03;;;38.30;51.50;;;;;;4983129;28;20039;-74
2023/06/26 13:25:46;;;;;;;5.80;3.90;;;38.20;51.40;;;;;;4983487;28;20098;-72
2023/06/26 13:28:11;;;;;;;6.45;4.20;;;37.90;51.40;;;;;;4983571;28;20045;-72
2023/06/26 13:30:37;;;;;;;7.28;3.70;;;37.90;51.80;;;;;;4983241;28;20038;-73
2023/06/26 13:33:03;;;;;;;7.47;3.80;;;39.30;50.40;;;;;;4966547;28;20082;-73
2023/06/26 13:35:29;;;;;;;8.73;4.22;;;40.00;49.40;;;;;;4982923;28;20038;-73
2023/06/26 13:37:55;;;;;;;5.90;4.07;;;39.90;48.80;;;;;;4983536;28;20309;-72
2023/06/26 13:40:20;;;;;;;5.68;4.07;;;39.40;49.00;;;;;;4965912;28;20320;-73
2023/06/26 13:42:46;;;;;;;5.13;3.85;;;39.50;49.00;;;;;;4985737;28;20094;-74
2023/06/26 13:45:12;;;;;;;5.35;4.07;;;39.10;48.80;;;;;;4991578;28;20058;-77
2023/06/26 13:47:40;;;;;;;8.35;3.78;;;39.90;48.80;;;;;;4996572;28;20053;-75
2023/06/26 13:50:09;;;;;;;4.32;3.42;;;39.60;48.30;;;;;;4980272;28;20046;-76
2023/06/26 13:52:34;;;;;;;6.22;4.10;;;39.40;48.20;;;;;;4983220;28;20054;-76
2023/06/26 13:55:00;;;;;;;5.85;3.97;;;39.60;47.60;;;;;;4986622;28;20038;-77
2023/06/26 13:57:27;;;;;;;8.25;4.38;;;40.10;47.20;;;;;;4985820;28;20069;-73
2023/06/26 13:59:53;;;;;;;4.53;3.50;;;40.20;46.40;;;;;;4995548;28;20339;-75
2023/06/26 14:02:18;;;;;;;5.78;3.50;;;40.10;46.10;;;;;;5005290;28;20057;-73
2023/06/26 14:04:44;;;;;;;3.92;2.78;;;40.30;45.60;;;;;;5005883;28;20030;-72
2023/06/26 14:07:10;;;;;;;4.18;3.08;;;40.40;45.60;;;;;;5006125;28;20034;-75
2023/06/26 14:09:35;;;;;;;5.45;3.33;;;40.40;45.30;;;;;;4978413;28;20355;-74
2023/06/26 14:12:01;;;;;;;5.55;2.97;;;41.10;45.90;;;;;;4986585;28;20317;-76
2023/06/26 14:14:27;;;;;;;6.32;3.55;;;40.70;45.10;;;;;;4986380;28;20207;-76
2023/06/26 14:16:53;;;;;;;4.63;3.20;;;40.90;44.90;;;;;;5010581;28;20105;-74
2023/06/26 14:19:19;;;;;;;3.88;2.95;;;40.50;44.80;;;;;;5005524;28;20045;-72
2023/06/26 14:21:45;;;;;;;4.57;2.92;;;41.10;44.80;;;;;;5005747;28;20030;-74
2023/06/26 14:24:10;;;;;;;3.92;2.60;;;41.10;44.80;;;;;;5005614;28;20049;-74
2023/06/26 14:26:36;;;;;;;3.40;2.65;;;41.10;44.20;;;;;;4987777;28;20073;-77
2023/06/26 14:29:02;;;;;;;4.63;2.42;;;40.70;44.60;;;;;;4997849;28;20054;-73
2023/06/26 14:31:28;;;;;;;3.58;2.42;;;40.70;44.60;;;;;;4985608;28;20023;-71
2023/06/26 14:33:54;;;;;;;4.57;2.42;;;39.90;45.10;;;;;;4986116;28;20367;-71
2023/06/26 14:36:20;;;;;;;3.28;2.30;;;39.40;46.10;;;;;;4985136;28;20022;-71
2023/06/26 14:38:46;;;;;;;3.47;2.33;;;39.10;45.70;;;;;;4985841;28;20078;-75
2023/06/26 14:41:12;;;;;;;4.97;2.60;;;38.60;46.20;;;;;;4986484;28;20021;-73
2023/06/26 14:43:40;;;;;;;3.17;1.95;;;38.80;46.50;;;;;;4985673;28;20057;-73
2023/06/26 14:46:06;;;;;;;5.65;2.10;;;39.20;45.80;;;;;;4985921;28;20223;-74
2023/06/26 14:48:32;;;;;;;4.93;2.38;;;39.50;45.40;;;;;;4985634;28;20030;-75
2023/06/26 14:50:57;;;;;;;3.40;2.20;;;39.50;45.10;;;;;;4986133;28;20208;-75
2023/06/26 14:53:24;;;;;;;3.17;2.00;;;39.90;45.30;;;;;;4985119;28;20038;-74
2023/06/26 14:55:50;;;;;;;4.35;2.30;;;40.10;45.20;;;;;;4968700;28;20085;-73
2023/06/26 14:58:16;;;;;;;3.30;2.00;;;40.20;45.00;;;;;;4985313;28;20261;-73
2023/06/26 15:00:41;;;;;;;5.03;2.15;;;40.10;45.10;;;;;;4985522;28;20098;-74
2023/06/26 15:03:07;;;;;;;4.80;2.45;;;40.80;45.00;;;;;;4985225;28;20078;-74
2023/06/26 15:05:33;;;;;;;4.75;2.63;;;40.20;45.40;;;;;;4984482;28;20347;-73
2023/06/26 15:07:58;;;;;;;5.18;2.50;;;39.80;45.80;;;;;;4985697;28;20027;-74
2023/06/26 15:10:24;;;;;;;5.03;2.15;;;39.10;46.40;;;;;;5000721;28;20038;-76
2023/06/26 15:12:50;;;;;;;3.55;2.33;;;39.10;46.30;;;;;;4985854;28;20038;-75
2023/06/26 15:15:17;;;;;;;4.50;2.53;;;38.20;46.60;;;;;;4985798;28;20253;-74
2023/06/26 15:17:43;;;;;;;4.55;2.35;;;38.80;46.80;;;;;;4984371;28;20030;-74
2023/06/26 15:20:08;;;;;;;5.03;2.50;;;39.50;46.20;;;;;;4985496;28;20038;-74
2023/06/26 15:22:34;;;;;;;5.70;2.50;;;39.30;46.10;;;;;;4984884;28;20027;-75
2023/06/26 15:25:00;;;;;;;4.00;2.67;;;39.20;46.10;;;;;;4984364;28;20317;-74
2023/06/26 15:27:26;;;;;;;4.38;2.60;;;38.80;46.30;;;;;;4983715;28;20081;-73
2023/06/26 15:29:51;;;;;;;5.97;3.17;;;38.20;46.90;;;;;;4985386;28;20313;-73
2023/06/26 15:32:17;;;;;;;4.30;3.05;;;38.00;47.30;;;;;;4984989;28;20058;-73
2023/06/26 15:34:43;;;;;;;5.20;3.47;;;36.60;48.20;;;;;;4983910;28;20085;-74
2023/06/26 15:37:09;;;;;;;6.75;3.60;;;36.30;48.70;;;;;;4985449;28;20041;-74
2023/06/26 15:39:34;;;;;;;6.72;3.30;;;36.40;48.50;;;;;;4984551;28;20053;-74
2023/06/26 15:42:02;;;;;;;5.50;3.67;;;36.00;48.70;;;;;;4985101;28;20123;-73
2023/06/26 15:44:28;;;;;;;;;;;35.70;48.90;;;;;;4984819;28;20050;-73
2023/06/26 15:46:53;;;;;;;5.80;3.70;;;35.30;49.20;;;;;;4984999;28;19985;-73
2023/06/26 15:49:19;;;;;;;7.28;3.85;;;34.80;49.40;;;;;;4984068;28;20035;-74
2023/06/26 15:51:47;;;;;;;5.88;3.53;;;34.80;49.60;;;;;;4984616;28;20078;-73
2023/06/26 15:54:13;;;;;;;6.88;3.42;;;35.00;49.50;;;;;;4984755;28;20031;-74
2023/06/26 15:56:39;;;;;;;5.45;3.78;;;34.90;49.50;;;;;;4983187;28;20033;-74
2023/06/26 15:59:05;;;;;;;7.05;4.40;;;35.00;49.50;;;;;;4965180;29;20042;-72
2023/06/26 16:01:31;;;;;;;7.50;4.18;;;34.60;49.90;;;;;;4964380;29;20031;-73
2023/06/26 16:03:56;;;;;;;6.78;4.43;;;33.90;51.00;;;;;;4965067;29;20031;-72
2023/06/26 16:06:22;;;;;;;8.68;4.50;;;33.20;51.80;;;;;;4964612;29;20027;-74
2023/06/26 16:08:48;;;;;;;7.10;4.22;;;33.00;52.30;;;;;;4979927;28;20149;-73
2023/06/26 16:11:15;;;;;;;7.05;4.35;;;33.00;52.40;;;;;;4964911;29;20054;-72
2023/06/26 16:13:41;;;;;;;5.80;4.07;;;32.80;52.30;;;;;;4963597;29;20257;-74
2023/06/26 16:16:07;;;;;;;8.70;4.80;;;32.40;52.80;;;;;;4963717;28;20027;-74
2023/06/26 16:18:33;;;;;;;7.32;4.95;;;32.20;53.40;;;;;;4964314;29;20054;-75
2023/06/26 16:20:59;;;;;;;7.82;5.00;;;31.70;53.90;;;;;;4964888;29;20321;-74
2023/06/26 16:23:25;;;;;;;7.13;4.60;;;31.50;54.10;;;;;;4964386;29;20099;-72
2023/06/26 16:25:51;;;;;;;7.60;5.05;;;31.60;54.30;;;;;;4964694;29;20027;-74
2023/06/26 16:28:16;;;;;;;9.80;5.05;;;32.80;53.10;;;;;;4964578;29;20027;-73
2023/06/26 16:30:42;;;;;;;8.38;4.88;;;33.10;51.60;;;;;;4963362;29;20039;-75
2023/06/26 16:33:08;;;;;;;8.02;4.32;;;32.70;51.70;;;;;;4964610;29;20258;-73
2023/06/26 16:35:34;;;;;;;8.45;4.90;;;32.40;52.10;;;;;;4964459;29;20058;-72
2023/06/26 16:38:08;;;;;;;7.95;4.60;;;32.80;51.80;;;;;;4964422;29;20035;-73
2023/06/26 16:40:35;;;;;;;6.47;4.38;;;33.00;51.20;;;;;;4964349;29;20324;-74
2023/06/26 16:43:01;;;;;;;9.00;4.60;;;33.60;49.80;;;;;;4963640;29;20319;-73
2023/06/26 16:45:26;;;;;;;4.53;3.17;;;33.70;49.60;;;;;;4964045;29;20055;-74
2023/06/26 16:47:52;;;;;;;4.88;3.45;;;34.00;49.20;;;;;;4963920;29;20023;-76
2023/06/26 16:50:19;;;;;;;5.75;3.53;;;34.20;49.00;;;;;;4964844;29;20027;-75
2023/06/26 16:52:45;;;;;;;8.05;3.40;;;34.00;48.60;;;;;;4964358;29;20023;-73
2023/06/26 16:55:11;;;;;;;5.82;3.30;;;33.70;49.00;;;;;;4964495;29;20126;-75
2023/06/26 16:57:36;;;;;;;6.43;2.80;;;33.40;49.20;;;;;;4963866;29;20098;-76
2023/06/26 17:00:03;;;;;;;5.25;2.20;;;33.10;48.70;;;;;;4964734;29;20215;-74
2023/06/26 17:02:32;;;;;;;6.75;1.80;;;32.80;48.50;;;;;;4946758;29;20059;-72
2023/06/26 17:04:59;;;;;;;5.50;2.20;;;32.60;48.20;;;;;;4964456;29;20328;-75
2023/06/26 17:07:24;;;;;;;4.50;2.03;;;31.90;48.30;;;;;;4963689;29;20035;-73
2023/06/26 17:09:50;;;;;;;5.60;2.10;;;31.50;48.30;;;;;;4975838;28;20027;-73
2023/06/26 17:12:16;;;;;;;6.55;2.20;;;31.10;48.80;;;;;;4983471;28;20190;-73
2023/06/26 17:14:42;;;;;;;5.97;1.52;;;31.00;48.30;;;;;;4983582;28;20097;-74
2023/06/26 17:17:07;;;;;;;4.93;1.95;;;31.40;47.90;;;;;;4984043;28;20217;-74
2023/06/26 17:19:36;;;;;;;2.97;1.30;;;32.20;47.60;;;;;;4983399;28;20102;-74
2023/06/26 17:22:05;;;;;;;5.32;1.60;;;32.80;46.20;;;;;;4983922;28;20039;-74
2023/06/26 17:24:33;;;;;;;3.50;1.30;;;33.40;44.90;;;;;;4983638;28;20066;-73
2023/06/26 17:27:10;;;;;;;4.95;1.80;;;33.30;44.20;;;;;;4982949;28;20216;-74
2023/06/26 17:29:40;;;;;;;3.35;1.42;;;33.20;44.30;;;;;;5002294;28;20030;-74
2023/06/26 17:32:06;;;;;;;5.30;1.20;;;33.00;44.10;;;;;;4987453;28;20042;-76
2023/06/26 17:34:32;;;;;;;5.63;1.60;;;33.00;43.80;;;;;;4986869;28;20045;-75
2023/06/26 17:36:58;;;;;;;5.93;1.50;;;33.20;43.80;;;;;;4987755;28;20039;-75
2023/06/26 17:39:25;;;;;;;2.83;0.95;;;33.20;43.70;;;;;;4987314;28;20043;-74
2023/06/26 17:41:52;;;;;;;4.45;1.30;;;33.00;44.00;;;;;;4987267;28;20039;-74
2023/06/26 17:44:18;;;;;;;4.57;1.52;;;32.40;44.80;;;;;;4987071;28;20031;-72
2023/06/26 17:46:44;;;;;;;3.72;1.30;;;32.20;45.00;;;;;;4986658;28;20037;-74